createdAt,value
2022-10-03T00:02:17.543Z,3.90
2022-10-03T00:05:05.737Z,3.97
2022-10-03T00:07:50.686Z,4.30
2022-10-03T00:10:45.079Z,4.20
2022-10-03T00:13:25.504Z,4.13
2022-10-03T00:16:34.211Z,3.70
2022-10-03T00:19:25.581Z,3.40
2022-10-03T00:21:51.937Z,3.40
2022-10-03T00:24:55.995Z,3.03
2022-10-03T00:27:25.482Z,2.80
2022-10-03T00:30:10.271Z,3.63
2022-10-03T00:33:14.940Z,2.80
2022-10-03T00:35:49.142Z,3.23
2022-10-03T00:38:27.636Z,2.70
2022-10-03T00:41:22.091Z,4.50
2022-10-03T00:44:27.435Z,4.30
2022-10-03T00:47:12.679Z,4.80
2022-10-03T00:50:02.440Z,4.40
2022-10-03T00:53:10.886Z,5.93
2022-10-03T00:55:46.899Z,6.40
2022-10-03T00:58:51.007Z,5.07
2022-10-03T01:01:28.911Z,5.23
2022-10-03T01:04:18.047Z,5.57
2022-10-03T01:07:13.063Z,5.60
2022-10-03T01:10:09.453Z,4.60
2022-10-03T01:12:57.241Z,5.00
2022-10-03T01:15:45.319Z,4.70
2022-10-03T01:18:24.798Z,4.53
2022-10-03T01:21:01.144Z,4.97
2022-10-03T01:23:42.748Z,5.00
2022-10-03T01:26:43.177Z,5.30
2022-10-03T01:29:34.779Z,5.33
2022-10-03T01:32:10.550Z,5.50
2022-10-03T01:35:14.612Z,5.33
2022-10-03T01:37:56.137Z,4.10
2022-10-03T01:40:30.654Z,3.87
2022-10-03T01:43:22.022Z,3.97
2022-10-03T01:46:12.510Z,3.60
2022-10-03T01:48:51.790Z,3.47
2022-10-03T01:51:43.048Z,3.50
2022-10-03T01:54:30.541Z,3.23
2022-10-03T01:57:02.917Z,3.43
2022-10-03T02:00:10.753Z,3.13
2022-10-03T02:02:46.778Z,3.00
2022-10-03T02:05:13.229Z,2.70
2022-10-03T02:08:05.781Z,3.07
2022-10-03T02:10:40.979Z,3.70
2022-10-03T02:13:15.819Z,2.97
2022-10-03T02:16:01.189Z,2.73
2022-10-03T02:18:45.385Z,2.40
2022-10-03T02:21:18.831Z,2.70
2022-10-03T02:23:46.098Z,3.17
2022-10-03T02:26:33.737Z,2.40
2022-10-03T02:29:49.095Z,3.30
2022-10-03T02:33:00.915Z,2.40
2022-10-03T02:35:30.296Z,3.57
2022-10-03T02:38:17.982Z,3.13
2022-10-03T02:41:08.905Z,2.53
2022-10-03T02:43:53.757Z,2.80
2022-10-03T02:46:43.422Z,2.67
2022-10-03T02:49:48.658Z,2.17
2022-10-03T02:53:09.350Z,3.00
2022-10-03T02:55:57.746Z,2.87
2022-10-03T02:58:51.545Z,2.57
2022-10-03T03:01:35.206Z,2.60
2022-10-03T03:04:01.560Z,2.23
2022-10-03T03:06:41.158Z,2.60
2022-10-03T03:09:42.896Z,3.00
2022-10-03T03:12:17.685Z,3.10
2022-10-03T03:15:43.853Z,3.60
2022-10-03T03:18:34.846Z,2.73
2022-10-03T03:21:38.842Z,2.80
2022-10-03T03:24:21.263Z,2.93
2022-10-03T03:27:23.688Z,3.20
2022-10-03T03:30:04.086Z,2.90
2022-10-03T03:32:56.932Z,3.10
2022-10-03T03:35:57.648Z,2.87
2022-10-03T03:38:30.178Z,3.10
2022-10-03T03:41:22.803Z,2.60
2022-10-03T03:44:26.547Z,2.60
2022-10-03T03:47:11.509Z,2.70
2022-10-03T03:49:47.170Z,2.80
2022-10-03T03:52:48.627Z,3.00
2022-10-03T03:55:41.892Z,2.77
2022-10-03T03:58:22.436Z,3.30
2022-10-03T04:01:17.676Z,2.93
2022-10-03T04:03:59.464Z,2.70
2022-10-03T04:07:07.132Z,2.90
2022-10-03T04:10:04.474Z,2.80
2022-10-03T04:12:44.500Z,3.00
2022-10-03T04:15:32.719Z,2.80
2022-10-03T04:18:55.679Z,2.70
2022-10-03T04:21:47.660Z,3.60
2022-10-03T04:24:19.720Z,2.87
2022-10-03T04:27:12.148Z,3.20
2022-10-03T04:30:17.585Z,2.87
2022-10-03T04:33:17.291Z,3.23
2022-10-03T04:35:46.752Z,3.40
2022-10-03T04:38:16.595Z,3.33
2022-10-03T04:40:59.795Z,2.80
2022-10-03T04:43:52.385Z,3.03
2022-10-03T04:46:25.881Z,3.33
2022-10-03T04:49:12.068Z,3.60
2022-10-03T04:52:14.923Z,2.97
2022-10-03T04:55:06.541Z,3.30
2022-10-03T04:58:04.937Z,4.00
2022-10-03T05:00:58.470Z,3.20
2022-10-03T05:03:40.273Z,2.90
2022-10-03T05:06:24.789Z,3.40
2022-10-03T05:09:21.786Z,3.40
2022-10-03T05:11:48.136Z,3.23
2022-10-03T05:14:43.736Z,3.83
2022-10-03T05:17:22.105Z,3.80
2022-10-03T05:20:03.561Z,3.60
2022-10-03T05:22:40.643Z,3.37
2022-10-03T05:25:28.953Z,4.20
2022-10-03T05:28:50.530Z,2.90
2022-10-03T05:31:41.839Z,3.30
2022-10-03T05:34:33.441Z,3.53
2022-10-03T05:37:20.159Z,3.47
2022-10-03T05:40:16.964Z,3.90
2022-10-03T05:42:49.380Z,3.23
2022-10-03T05:45:23.292Z,3.60
2022-10-03T05:48:27.571Z,3.43
2022-10-03T05:51:21.963Z,3.40
2022-10-03T05:54:25.773Z,3.07
2022-10-03T05:57:10.447Z,3.90
2022-10-03T05:59:55.744Z,4.43
2022-10-03T06:02:54.137Z,3.93
2022-10-03T06:05:39.826Z,3.60
2022-10-03T06:08:26.986Z,4.10
2022-10-03T06:11:20.521Z,3.93
2022-10-03T06:14:18.004Z,5.73
2022-10-03T06:16:53.447Z,3.97
2022-10-03T06:19:32.189Z,4.00
2022-10-03T06:22:17.678Z,3.90
2022-10-03T06:25:12.045Z,4.50
2022-10-03T06:27:54.974Z,4.23
2022-10-03T06:30:46.280Z,4.33
2022-10-03T06:33:50.559Z,4.20
2022-10-03T06:36:38.797Z,4.00
2022-10-03T06:39:26.898Z,4.47
2022-10-03T06:41:59.426Z,4.10
2022-10-03T06:45:04.558Z,5.63
2022-10-03T06:47:43.041Z,4.67
2022-10-03T06:50:26.241Z,4.87
2022-10-03T06:53:05.127Z,4.83
2022-10-03T06:56:03.071Z,4.70
2022-10-03T06:58:42.122Z,4.60
2022-10-03T07:01:11.553Z,5.47
2022-10-03T07:03:55.920Z,6.20
2022-10-03T07:06:34.503Z,6.90
2022-10-03T07:09:19.647Z,6.80
2022-10-03T07:12:21.004Z,6.73
2022-10-03T07:15:05.519Z,6.30
2022-10-03T07:17:54.965Z,6.80
2022-10-03T07:20:49.081Z,8.40
2022-10-03T07:23:31.184Z,7.23
2022-10-03T07:26:35.454Z,7.50
2022-10-03T07:29:13.202Z,7.87
2022-10-03T07:32:04.864Z,6.90
2022-10-03T07:34:43.379Z,7.30
2022-10-03T07:37:56.778Z,7.53
2022-10-03T07:40:54.213Z,8.37
2022-10-03T07:43:45.270Z,8.20
2022-10-03T07:46:53.710Z,8.47
2022-10-03T07:49:54.848Z,8.47
2022-10-03T07:52:54.087Z,8.57
2022-10-03T07:55:44.788Z,8.87
2022-10-03T07:58:26.673Z,9.13
2022-10-03T08:01:15.059Z,8.63
2022-10-03T08:04:26.288Z,8.10
2022-10-03T08:07:13.191Z,9.13
2022-10-03T08:10:03.390Z,9.23
2022-10-03T08:12:49.142Z,8.40
2022-10-03T08:15:20.535Z,9.87
2022-10-03T08:18:02.120Z,9.40
2022-10-03T08:20:51.343Z,8.50
2022-10-03T08:23:48.799Z,9.53
2022-10-03T08:26:21.596Z,10.30
2022-10-03T08:29:32.775Z,10.50
2022-10-03T08:32:01.791Z,9.63
2022-10-03T08:34:40.463Z,11.33
2022-10-03T08:37:44.073Z,10.13
2022-10-03T08:40:56.532Z,11.40
2022-10-03T08:44:00.162Z,10.50
2022-10-03T08:46:38.886Z,10.80
2022-10-03T08:49:13.459Z,10.33
2022-10-03T08:52:01.172Z,10.17
2022-10-03T08:54:45.059Z,10.10
2022-10-03T08:57:34.752Z,9.50
2022-10-03T09:00:39.722Z,9.10
2022-10-03T09:03:34.303Z,9.93
2022-10-03T09:06:24.492Z,10.50
2022-10-03T09:09:21.898Z,11.23
2022-10-03T09:12:13.463Z,10.20
2022-10-03T09:15:05.015Z,10.20
2022-10-03T09:17:56.438Z,9.27
2022-10-03T09:20:44.322Z,9.80
2022-10-03T09:23:32.181Z,15.47
2022-10-03T09:26:36.424Z,14.33
2022-10-03T09:29:18.219Z,11.60
2022-10-03T09:32:23.420Z,9.63
2022-10-03T09:35:26.984Z,10.93
2022-10-03T09:38:30.827Z,11.07
2022-10-03T09:41:15.766Z,8.10
2022-10-03T09:43:51.295Z,7.90
2022-10-03T09:47:10.170Z,7.43
2022-10-03T09:50:17.202Z,9.20
2022-10-03T09:53:17.348Z,7.10
2022-10-03T09:55:52.868Z,7.97
2022-10-03T09:58:33.570Z,6.10
2022-10-03T10:01:08.762Z,8.00
2022-10-03T10:04:05.745Z,7.00
2022-10-03T10:09:23.346Z,5.60
2022-10-03T10:12:29.746Z,5.30
2022-10-03T10:15:06.015Z,5.60
2022-10-03T10:17:45.921Z,8.27
2022-10-03T10:20:12.437Z,8.03
2022-10-03T10:23:11.647Z,6.13
2022-10-03T10:26:04.625Z,5.20
2022-10-03T10:28:49.810Z,6.53
2022-10-03T10:31:32.444Z,6.60
2022-10-03T10:34:23.796Z,7.20
2022-10-03T10:37:08.587Z,6.60
2022-10-03T10:39:34.943Z,6.00
2022-10-03T10:42:04.331Z,4.80
2022-10-03T10:44:52.061Z,6.43
2022-10-03T10:47:24.595Z,4.77
2022-10-03T10:50:04.503Z,4.80
2022-10-03T10:52:47.405Z,4.63
2022-10-03T10:55:51.497Z,3.50
2022-10-03T10:58:45.416Z,4.70
2022-10-03T11:01:48.845Z,4.00
2022-10-03T11:04:30.509Z,3.50
2022-10-03T11:07:28.319Z,4.80
2022-10-03T11:10:00.557Z,5.30
2022-10-03T11:13:00.724Z,3.80
2022-10-03T11:15:51.046Z,3.23
2022-10-03T11:18:35.834Z,3.67
2022-10-03T11:21:33.241Z,4.23
2022-10-03T11:24:07.975Z,4.00
2022-10-03T11:27:02.495Z,3.20
2022-10-03T11:30:23.125Z,2.90
2022-10-03T11:33:11.008Z,3.17
2022-10-03T11:36:25.177Z,3.40
2022-10-03T11:39:05.268Z,3.03
2022-10-03T11:41:46.754Z,3.63
2022-10-03T11:44:15.742Z,3.40
2022-10-03T11:47:00.934Z,4.60
2022-10-03T11:49:45.744Z,3.10
2022-10-03T11:52:18.458Z,3.70
2022-10-03T11:54:48.663Z,3.70
2022-10-03T11:57:28.454Z,3.23
2022-10-03T12:00:09.931Z,3.10
2022-10-03T12:02:52.009Z,3.70
2022-10-03T12:05:47.835Z,3.33
2022-10-03T12:09:08.033Z,3.07
2022-10-03T12:11:53.677Z,4.00
2022-10-03T12:14:31.133Z,3.77
2022-10-03T12:17:06.727Z,5.47
2022-10-03T12:20:02.472Z,4.00
2022-10-03T12:22:53.173Z,3.43
2022-10-03T12:25:26.279Z,4.00
2022-10-03T12:28:04.911Z,3.00
2022-10-03T12:30:42.527Z,3.50
2022-10-03T12:33:30.303Z,4.83
2022-10-03T12:36:13.176Z,3.30
2022-10-03T12:38:58.657Z,3.60
2022-10-03T12:41:43.899Z,3.80
2022-10-03T12:44:48.664Z,3.23
2022-10-03T12:47:54.731Z,3.33
2022-10-03T12:50:36.832Z,3.70
2022-10-03T12:53:29.854Z,3.17
2022-10-03T12:56:26.990Z,4.17
2022-10-03T12:59:14.677Z,4.60
2022-10-03T13:02:18.095Z,3.60
2022-10-03T13:05:12.864Z,3.60
2022-10-03T13:07:39.224Z,2.90
2022-10-03T13:10:45.640Z,2.97
2022-10-03T13:13:25.272Z,3.80
2022-10-03T13:16:04.286Z,3.20
2022-10-03T13:18:36.994Z,3.80
2022-10-03T13:21:45.017Z,3.03
2022-10-03T13:24:22.505Z,2.90
2022-10-03T13:27:10.778Z,3.10
2022-10-03T13:29:46.156Z,2.70
2022-10-03T13:32:35.979Z,3.37
2022-10-03T13:35:29.057Z,2.90
2022-10-03T13:38:11.103Z,2.90
2022-10-03T13:40:43.385Z,6.57
2022-10-03T13:43:15.300Z,3.47
2022-10-03T13:45:44.488Z,3.70
2022-10-03T13:48:19.788Z,5.93
2022-10-03T13:51:02.596Z,5.27
2022-10-03T13:53:38.105Z,3.50
2022-10-03T13:56:14.689Z,3.53
2022-10-03T13:59:05.236Z,3.20
2022-10-03T14:01:46.236Z,3.33
2022-10-03T14:05:03.473Z,3.33
2022-10-03T14:07:45.482Z,3.40
2022-10-03T14:11:02.433Z,3.10
2022-10-03T14:14:06.363Z,3.40
2022-10-03T14:16:42.007Z,3.03
2022-10-03T14:19:21.989Z,3.03
2022-10-03T14:22:07.352Z,3.00
2022-10-03T14:24:58.647Z,2.60
2022-10-03T14:27:50.098Z,3.40
2022-10-03T14:30:21.544Z,2.80
2022-10-03T14:33:20.137Z,3.27
2022-10-03T14:36:02.100Z,3.00
2022-10-03T14:39:00.582Z,2.97
2022-10-03T14:41:32.714Z,2.93
2022-10-03T14:44:13.320Z,2.87
2022-10-03T14:46:50.621Z,4.17
2022-10-03T14:49:47.893Z,3.83
2022-10-03T14:52:31.529Z,3.43
2022-10-03T14:55:07.332Z,3.33
2022-10-03T14:58:05.994Z,3.33
2022-10-03T15:00:38.788Z,3.10
2022-10-03T15:03:17.340Z,3.43
2022-10-03T15:05:59.999Z,4.10
2022-10-03T15:08:41.155Z,4.53
2022-10-03T15:11:08.378Z,4.10
2022-10-03T15:13:54.574Z,3.97
2022-10-03T15:16:23.228Z,4.10
2022-10-03T15:18:57.319Z,3.93
2022-10-03T15:21:27.169Z,3.43
2022-10-03T15:24:07.199Z,3.47
2022-10-03T15:26:36.357Z,3.13
2022-10-03T15:29:06.614Z,3.27
2022-10-03T15:31:36.970Z,3.70
2022-10-03T15:34:14.542Z,3.23
2022-10-03T15:36:43.639Z,3.33
2022-10-03T15:39:43.962Z,3.80
2022-10-03T15:42:10.405Z,3.53
2022-10-03T15:44:40.011Z,4.30
2022-10-03T15:47:12.054Z,4.87
2022-10-03T15:49:45.521Z,5.50
2022-10-03T15:52:41.325Z,7.70
2022-10-03T15:55:16.416Z,5.63
2022-10-03T15:57:49.515Z,4.23
2022-10-03T16:00:33.597Z,4.40
2022-10-03T16:03:26.464Z,4.53
2022-10-03T16:06:01.962Z,5.20
2022-10-03T16:08:32.845Z,3.97
2022-10-03T16:11:25.211Z,4.00
2022-10-03T16:14:08.894Z,3.63
2022-10-03T16:17:00.823Z,3.60
2022-10-03T16:19:46.392Z,4.23
2022-10-03T16:22:37.855Z,4.20
2022-10-03T16:25:12.033Z,4.63
2022-10-03T16:27:51.581Z,3.77
2022-10-03T16:30:22.444Z,4.47
2022-10-03T16:33:24.231Z,4.20
2022-10-03T16:35:54.497Z,4.83
2022-10-03T16:38:35.545Z,4.57
2022-10-03T16:41:22.860Z,6.20
2022-10-03T16:44:11.313Z,5.40
2022-10-03T16:46:40.087Z,4.97
2022-10-03T16:49:34.162Z,5.03
2022-10-03T16:52:09.909Z,5.73
2022-10-03T16:54:37.205Z,5.70
2022-10-03T16:57:11.844Z,5.13
2022-10-03T16:59:40.011Z,5.10
2022-10-03T17:02:14.141Z,5.27
2022-10-03T17:04:46.076Z,5.83
2022-10-03T17:07:20.786Z,5.43
2022-10-03T17:09:50.329Z,5.00
2022-10-03T17:12:34.178Z,4.70
2022-10-03T17:15:22.226Z,4.80
2022-10-03T17:18:02.695Z,3.50
2022-10-03T17:20:41.992Z,3.90
2022-10-03T17:23:30.972Z,3.80
2022-10-03T17:25:59.860Z,3.87
2022-10-03T17:28:45.053Z,4.00
2022-10-03T17:31:46.190Z,5.27
2022-10-03T17:34:18.644Z,5.33
2022-10-03T17:37:22.099Z,4.43
2022-10-03T17:39:58.735Z,4.50
2022-10-03T17:42:28.837Z,3.97
2022-10-03T17:45:26.155Z,3.73
2022-10-03T17:47:55.592Z,4.83
2022-10-03T17:50:30.454Z,3.77
2022-10-03T17:52:58.193Z,4.33
2022-10-03T17:55:31.563Z,4.07
2022-10-03T17:58:14.513Z,4.13
2022-10-03T18:00:43.921Z,4.00
2022-10-03T18:03:20.059Z,4.47
2022-10-03T18:05:50.332Z,4.70
2022-10-03T18:08:30.203Z,4.13
2022-10-03T18:10:58.341Z,4.87
2022-10-03T18:13:36.888Z,4.40
2022-10-03T18:16:15.572Z,4.27
2022-10-03T18:19:05.575Z,4.50
2022-10-03T18:21:54.484Z,4.77
2022-10-03T18:24:37.938Z,5.60
2022-10-03T18:27:27.023Z,5.80
2022-10-03T18:30:06.903Z,9.00
2022-10-03T18:32:38.356Z,6.37
2022-10-03T18:35:15.284Z,5.90
2022-10-03T18:37:44.647Z,6.30
2022-10-03T18:40:19.615Z,7.87
2022-10-03T18:42:50.287Z,8.20
2022-10-03T18:45:27.196Z,9.10
2022-10-03T18:47:59.984Z,9.17
2022-10-03T18:50:40.577Z,10.27
2022-10-03T18:53:37.225Z,8.63
2022-10-03T18:56:11.300Z,7.70
2022-10-03T18:58:43.823Z,7.40
2022-10-03T19:01:23.081Z,6.37
2022-10-03T19:04:07.251Z,6.50
2022-10-03T19:06:41.259Z,6.87
2022-10-03T19:09:15.955Z,6.93
2022-10-03T19:11:51.432Z,5.90
2022-10-03T19:14:41.018Z,6.23
2022-10-03T19:17:33.546Z,5.23
2022-10-03T19:20:41.206Z,6.43
2022-10-03T19:23:37.462Z,6.40
2022-10-03T19:26:12.838Z,6.77
2022-10-03T19:28:51.595Z,6.67
2022-10-03T19:31:26.658Z,7.40
2022-10-03T19:34:34.544Z,8.60
2022-10-03T19:37:01.365Z,7.70
2022-10-03T19:39:31.900Z,7.97
2022-10-03T19:42:21.751Z,7.37
2022-10-03T19:44:49.383Z,9.50
2022-10-03T19:47:30.373Z,8.53
2022-10-03T19:50:15.820Z,7.60
2022-10-03T19:52:42.602Z,7.70
2022-10-03T19:55:15.760Z,6.93
2022-10-03T19:58:13.552Z,5.43
2022-10-03T20:00:49.057Z,5.57
2022-10-03T20:03:40.528Z,6.23
2022-10-03T20:06:22.923Z,6.50
2022-10-03T20:09:01.610Z,5.03
2022-10-03T20:11:37.297Z,4.97
2022-10-03T20:14:05.103Z,4.97
2022-10-03T20:16:36.034Z,4.63
2022-10-03T20:19:10.096Z,5.97
2022-10-03T20:21:36.988Z,12.40
2022-10-03T20:24:18.655Z,5.00
2022-10-03T20:27:05.320Z,4.20
2022-10-03T20:29:42.557Z,4.07
2022-10-03T20:32:15.424Z,4.00
2022-10-03T20:34:49.766Z,4.63
2022-10-03T20:37:43.494Z,4.00
2022-10-03T20:40:36.443Z,4.53
2022-10-03T20:43:42.478Z,4.67
2022-10-03T20:46:40.594Z,6.57
2022-10-03T20:49:26.174Z,7.40
2022-10-03T20:51:52.557Z,9.80
2022-10-03T20:54:21.870Z,5.47
2022-10-03T20:57:19.967Z,5.40
2022-10-03T20:59:51.501Z,5.13
2022-10-03T21:02:36.467Z,4.47
2022-10-03T21:05:28.608Z,5.00
2022-10-03T21:08:02.536Z,4.53
2022-10-03T21:10:40.720Z,4.50
2022-10-03T21:13:29.125Z,4.20
2022-10-03T21:15:57.915Z,5.90
2022-10-03T21:18:28.407Z,4.67
2022-10-03T21:21:24.050Z,4.10
2022-10-03T21:23:56.622Z,4.33
2022-10-03T21:26:26.252Z,5.10
2022-10-03T21:29:24.373Z,4.43
2022-10-03T21:32:12.427Z,4.33
2022-10-03T21:35:13.395Z,4.67
2022-10-03T21:37:58.161Z,4.80
2022-10-03T21:40:55.653Z,4.57
2022-10-03T21:43:34.152Z,4.40
2022-10-03T21:46:14.284Z,5.40
2022-10-03T21:49:18.901Z,4.23
2022-10-03T21:51:48.629Z,4.97
2022-10-03T21:54:33.007Z,4.27
2022-10-03T21:57:25.647Z,4.73
2022-10-03T22:00:16.399Z,4.70
2022-10-03T22:03:04.643Z,4.20
2022-10-03T22:05:45.678Z,4.77
2022-10-03T22:08:22.216Z,8.17
2022-10-03T22:11:12.473Z,6.03
2022-10-03T22:13:42.653Z,5.23
2022-10-03T22:16:22.160Z,4.57
2022-10-03T22:19:09.005Z,4.63
2022-10-03T22:22:10.520Z,3.90
2022-10-03T22:24:40.060Z,4.20
2022-10-03T22:27:20.034Z,5.10
2022-10-03T22:29:46.510Z,5.40
2022-10-03T22:32:29.752Z,5.03
2022-10-03T22:35:08.506Z,4.70
2022-10-03T22:37:35.705Z,5.93
2022-10-03T22:40:03.449Z,5.37
2022-10-03T22:42:38.280Z,4.50
2022-10-03T22:45:07.116Z,5.97
2022-10-03T22:47:35.768Z,4.90
2022-10-03T22:50:06.366Z,5.17
2022-10-03T22:52:37.494Z,5.43
2022-10-03T22:55:08.441Z,7.00
2022-10-03T22:57:36.207Z,5.63
2022-10-03T23:00:13.106Z,5.10
2022-10-03T23:03:10.091Z,6.23
2022-10-03T23:06:01.069Z,4.97
2022-10-03T23:08:51.879Z,5.70
2022-10-03T23:11:25.818Z,5.50
2022-10-03T23:13:53.754Z,6.20
2022-10-03T23:16:43.393Z,5.77
2022-10-03T23:19:23.382Z,5.93
2022-10-03T23:21:52.860Z,5.40
2022-10-03T23:24:32.607Z,6.20
2022-10-03T23:27:20.192Z,8.30
2022-10-03T23:30:12.069Z,8.03
2022-10-03T23:32:47.645Z,6.47
2022-10-03T23:35:32.991Z,5.33
2022-10-03T23:38:00.671Z,5.00
2022-10-03T23:40:44.000Z,5.60
2022-10-03T23:43:33.326Z,4.50
2022-10-03T23:46:05.448Z,5.20
2022-10-03T23:48:58.180Z,5.20
2022-10-03T23:51:36.425Z,5.60
2022-10-03T23:54:06.321Z,4.90
2022-10-03T23:56:48.263Z,4.47
2022-10-03T23:59:14.621Z,5.23
